Aérodrome :







RETROUVEZ-NOUS SUR...

 
LOGIN :

S'inscrire | Disclaimer

   EN    FR    IT 

 









Légende :    VFR   VFR Marginal   IFR   IFR Intensif   IFR Très Intensif
Visi : 
Plafond : 
>= 8 km
>= 3000ft
5 à 8 km
1000 à 3000 ft
1500m à 5 km
500 à 1000 ft
800 à 1500m
200 à 500 ft
< 800m
< 200 ft
Symboles :   Orages  Brouillard  Fortes neiges  Fortes précipitations  Vent > 20 kt






- Altitude de l'aérodrome : 199 ft


KASH - Boire Field

DERNIER METAR :
  • 200456Z AUTO 32012KT 10SM OVC100 M08/M14 A2994 RMK AO2 SLP147 T10781144 400501111

METARs EXPIRÉS :
  • 200356Z AUTO 32016KT 10SM FEW065 OVC100 M08/M14 A2993 RMK AO2 SLP143 T10781139
  • 200256Z AUTO 32019G23KT 10SM FEW060 OVC100 M06/M13 A2989 RMK AO2 SLP129 T10611128 51044

TAF N/A



MET'MAP, la Météo Aéronautique d'un coup d'oeil ! - Copyright ORBIFLY Décembre 2007 - Disclaimer

ORBIFLY MET'MAP TEAM :

Programmation & Développement : Alexandra Zaïnal
Sur une idée originale de : Baudouin d'Aumeries
Assistance à la programmation : Marc-Olivier Méhu
Soutien technique & logistique : Manuel Goepfert

Contact : metmap@orbifly.com




SOURCES & CREDITS :

   NOAA